sensor_id;sensor_type;location;lat;lon;timestamp;P1;durP1;ratioP1;P2;durP2;ratioP2
78143;SDS011;67394;52.522;13.622;2023-02-28T00:02:23;6.22;;;2.65;;
78143;SDS011;67394;52.522;13.622;2023-02-28T00:04:49;4.50;;;2.67;;
78143;SDS011;67394;52.522;13.622;2023-02-28T00:07:15;6.45;;;2.60;;
78143;SDS011;67394;52.522;13.622;2023-02-28T00:09:42;4.03;;;2.33;;
78143;SDS011;67394;52.522;13.622;2023-02-28T00:12:08;4.72;;;2.85;;
78143;SDS011;67394;52.522;13.622;2023-02-28T00:14:34;7.43;;;2.90;;
78143;SDS011;67394;52.522;13.622;2023-02-28T00:17:01;5.78;;;3.08;;
78143;SDS011;67394;52.522;13.622;2023-02-28T00:19:27;5.70;;;3.00;;
78143;SDS011;67394;52.522;13.622;2023-02-28T00:21:53;4.47;;;2.60;;
78143;SDS011;67394;52.522;13.622;2023-02-28T00:24:20;6.90;;;2.67;;
78143;SDS011;67394;52.522;13.622;2023-02-28T00:26:46;4.30;;;2.80;;
78143;SDS011;67394;52.522;13.622;2023-02-28T00:29:12;5.13;;;3.05;;
78143;SDS011;67394;52.522;13.622;2023-02-28T00:31:39;5.72;;;2.90;;
78143;SDS011;67394;52.522;13.622;2023-02-28T00:34:05;4.97;;;2.72;;
78143;SDS011;67394;52.522;13.622;2023-02-28T00:36:31;5.57;;;3.33;;
78143;SDS011;67394;52.522;13.622;2023-02-28T00:38:57;7.40;;;3.33;;
78143;SDS011;67394;52.522;13.622;2023-02-28T00:41:24;5.38;;;2.90;;
78143;SDS011;67394;52.522;13.622;2023-02-28T00:43:50;4.80;;;2.78;;
78143;SDS011;67394;52.522;13.622;2023-02-28T00:46:16;5.07;;;3.00;;
78143;SDS011;67394;52.522;13.622;2023-02-28T00:48:43;5.35;;;3.10;;
78143;SDS011;67394;52.522;13.622;2023-02-28T00:51:09;6.13;;;2.80;;
78143;SDS011;67394;52.522;13.622;2023-02-28T00:53:35;5.38;;;3.28;;
78143;SDS011;67394;52.522;13.622;2023-02-28T00:56:02;4.47;;;2.83;;
78143;SDS011;67394;52.522;13.622;2023-02-28T00:58:29;5.90;;;2.92;;
78143;SDS011;67394;52.522;13.622;2023-02-28T01:00:55;6.63;;;3.33;;
78143;SDS011;67394;52.522;13.622;2023-02-28T01:03:22;4.93;;;3.08;;
78143;SDS011;67394;52.522;13.622;2023-02-28T01:05:48;6.53;;;3.33;;
78143;SDS011;67394;52.522;13.622;2023-02-28T01:08:14;5.78;;;3.03;;
78143;SDS011;67394;52.522;13.622;2023-02-28T01:10:41;5.47;;;3.45;;
78143;SDS011;67394;52.522;13.622;2023-02-28T01:13:08;5.55;;;3.10;;
78143;SDS011;67394;52.522;13.622;2023-02-28T01:15:34;4.57;;;3.17;;
78143;SDS011;67394;52.522;13.622;2023-02-28T01:18:01;5.15;;;2.80;;
78143;SDS011;67394;52.522;13.622;2023-02-28T01:20:27;6.05;;;3.10;;
78143;SDS011;67394;52.522;13.622;2023-02-28T01:22:54;4.07;;;2.53;;
78143;SDS011;67394;52.522;13.622;2023-02-28T01:25:20;5.22;;;3.22;;
78143;SDS011;67394;52.522;13.622;2023-02-28T01:27:46;6.82;;;3.05;;
78143;SDS011;67394;52.522;13.622;2023-02-28T01:30:13;4.82;;;2.95;;
78143;SDS011;67394;52.522;13.622;2023-02-28T01:32:39;5.82;;;3.22;;
78143;SDS011;67394;52.522;13.622;2023-02-28T01:35:05;5.82;;;3.10;;
78143;SDS011;67394;52.522;13.622;2023-02-28T01:37:32;6.47;;;3.30;;
78143;SDS011;67394;52.522;13.622;2023-02-28T01:39:58;5.38;;;3.13;;
78143;SDS011;67394;52.522;13.622;2023-02-28T01:42:25;5.97;;;3.35;;
78143;SDS011;67394;52.522;13.622;2023-02-28T01:44:59;5.63;;;3.05;;
78143;SDS011;67394;52.522;13.622;2023-02-28T01:47:27;6.10;;;3.13;;
78143;SDS011;67394;52.522;13.622;2023-02-28T01:49:57;5.05;;;3.17;;
78143;SDS011;67394;52.522;13.622;2023-02-28T01:52:26;5.72;;;3.60;;
78143;SDS011;67394;52.522;13.622;2023-02-28T01:54:54;3.47;;;2.85;;
78143;SDS011;67394;52.522;13.622;2023-02-28T01:57:24;6.55;;;3.10;;
78143;SDS011;67394;52.522;13.622;2023-02-28T01:59:55;9.23;;;3.83;;
78143;SDS011;67394;52.522;13.622;2023-02-28T02:02:22;6.93;;;3.55;;
78143;SDS011;67394;52.522;13.622;2023-02-28T02:07:21;8.43;;;3.45;;
78143;SDS011;67394;52.522;13.622;2023-02-28T02:09:48;5.45;;;3.42;;
78143;SDS011;67394;52.522;13.622;2023-02-28T02:12:26;7.30;;;4.18;;
78143;SDS011;67394;52.522;13.622;2023-02-28T02:15:05;7.57;;;3.47;;
78143;SDS011;67394;52.522;13.622;2023-02-28T02:17:45;6.38;;;3.58;;
78143;SDS011;67394;52.522;13.622;2023-02-28T02:20:31;7.28;;;3.95;;
78143;SDS011;67394;52.522;13.622;2023-02-28T02:31:44;8.35;;;4.18;;
78143;SDS011;67394;52.522;13.622;2023-02-28T02:34:26;7.13;;;3.90;;
78143;SDS011;67394;52.522;13.622;2023-02-28T02:37:09;5.53;;;3.50;;
78143;SDS011;67394;52.522;13.622;2023-02-28T02:42:17;6.70;;;3.70;;
78143;SDS011;67394;52.522;13.622;2023-02-28T02:44:49;7.50;;;3.58;;
78143;SDS011;67394;52.522;13.622;2023-02-28T02:47:22;6.38;;;4.05;;
78143;SDS011;67394;52.522;13.622;2023-02-28T02:49:52;6.15;;;4.22;;
78143;SDS011;67394;52.522;13.622;2023-02-28T02:52:24;8.07;;;4.43;;
78143;SDS011;67394;52.522;13.622;2023-02-28T02:54:57;7.82;;;4.80;;
78143;SDS011;67394;52.522;13.622;2023-02-28T02:57:27;7.93;;;4.75;;
78143;SDS011;67394;52.522;13.622;2023-02-28T02:59:59;7.78;;;4.13;;
78143;SDS011;67394;52.522;13.622;2023-02-28T03:02:29;8.85;;;3.95;;
78143;SDS011;67394;52.522;13.622;2023-02-28T03:04:59;7.55;;;4.07;;
78143;SDS011;67394;52.522;13.622;2023-02-28T03:07:28;9.23;;;3.95;;
78143;SDS011;67394;52.522;13.622;2023-02-28T03:09:56;8.05;;;4.47;;
78143;SDS011;67394;52.522;13.622;2023-02-28T03:12:23;7.53;;;4.22;;
78143;SDS011;67394;52.522;13.622;2023-02-28T03:15:26;8.43;;;4.20;;
78143;SDS011;67394;52.522;13.622;2023-02-28T03:18:04;6.78;;;4.25;;
78143;SDS011;67394;52.522;13.622;2023-02-28T03:20:45;9.85;;;4.00;;
78143;SDS011;67394;52.522;13.622;2023-02-28T03:26:04;6.15;;;3.50;;
78143;SDS011;67394;52.522;13.622;2023-02-28T03:28:41;8.88;;;4.10;;
78143;SDS011;67394;52.522;13.622;2023-02-28T03:31:18;6.43;;;3.95;;
78143;SDS011;67394;52.522;13.622;2023-02-28T03:36:43;5.18;;;3.13;;
78143;SDS011;67394;52.522;13.622;2023-02-28T03:42:23;8.48;;;3.70;;
78143;SDS011;67394;52.522;13.622;2023-02-28T03:45:00;7.75;;;4.70;;
78143;SDS011;67394;52.522;13.622;2023-02-28T03:53:44;6.82;;;3.42;;
78143;SDS011;67394;52.522;13.622;2023-02-28T03:55:52;7.78;;;3.95;;
78143;SDS011;67394;52.522;13.622;2023-02-28T04:01:21;10.05;;;5.18;;
78143;SDS011;67394;52.522;13.622;2023-02-28T04:03:53;8.15;;;4.80;;
78143;SDS011;67394;52.522;13.622;2023-02-28T04:06:21;8.70;;;4.32;;
78143;SDS011;67394;52.522;13.622;2023-02-28T04:08:48;7.03;;;4.82;;
78143;SDS011;67394;52.522;13.622;2023-02-28T04:11:30;8.80;;;5.20;;
78143;SDS011;67394;52.522;13.622;2023-02-28T04:14:04;7.22;;;4.20;;
78143;SDS011;67394;52.522;13.622;2023-02-28T04:16:32;7.10;;;4.18;;
78143;SDS011;67394;52.522;13.622;2023-02-28T04:19:02;7.72;;;4.78;;
78143;SDS011;67394;52.522;13.622;2023-02-28T04:21:29;7.65;;;4.22;;
78143;SDS011;67394;52.522;13.622;2023-02-28T04:23:57;7.88;;;4.18;;
78143;SDS011;67394;52.522;13.622;2023-02-28T04:26:23;10.73;;;4.43;;
78143;SDS011;67394;52.522;13.622;2023-02-28T04:28:50;8.95;;;4.95;;
78143;SDS011;67394;52.522;13.622;2023-02-28T04:31:16;7.20;;;4.45;;
78143;SDS011;67394;52.522;13.622;2023-02-28T04:33:42;8.07;;;3.90;;
78143;SDS011;67394;52.522;13.622;2023-02-28T04:36:09;8.30;;;4.40;;
78143;SDS011;67394;52.522;13.622;2023-02-28T04:38:36;6.70;;;4.00;;
78143;SDS011;67394;52.522;13.622;2023-02-28T04:41:04;9.50;;;4.18;;
78143;SDS011;67394;52.522;13.622;2023-02-28T04:43:31;7.80;;;4.63;;
78143;SDS011;67394;52.522;13.622;2023-02-28T04:45:59;7.60;;;4.50;;
78143;SDS011;67394;52.522;13.622;2023-02-28T04:48:28;8.13;;;4.18;;
78143;SDS011;67394;52.522;13.622;2023-02-28T04:50:59;9.13;;;4.68;;
78143;SDS011;67394;52.522;13.622;2023-02-28T04:53:30;7.72;;;4.70;;
78143;SDS011;67394;52.522;13.622;2023-02-28T04:55:57;8.77;;;4.07;;
78143;SDS011;67394;52.522;13.622;2023-02-28T04:58:24;7.63;;;4.00;;
78143;SDS011;67394;52.522;13.622;2023-02-28T05:00:51;9.50;;;4.47;;
78143;SDS011;67394;52.522;13.622;2023-02-28T05:03:19;8.90;;;4.00;;
78143;SDS011;67394;52.522;13.622;2023-02-28T05:05:46;7.07;;;4.07;;
78143;SDS011;67394;52.522;13.622;2023-02-28T05:08:12;7.43;;;3.95;;
78143;SDS011;67394;52.522;13.622;2023-02-28T05:10:39;9.38;;;4.50;;
78143;SDS011;67394;52.522;13.622;2023-02-28T05:13:05;9.05;;;4.30;;
78143;SDS011;67394;52.522;13.622;2023-02-28T05:15:32;7.20;;;4.25;;
78143;SDS011;67394;52.522;13.622;2023-02-28T05:18:00;8.45;;;5.30;;
78143;SDS011;67394;52.522;13.622;2023-02-28T05:20:27;8.60;;;4.43;;
78143;SDS011;67394;52.522;13.622;2023-02-28T05:22:53;7.40;;;4.30;;
78143;SDS011;67394;52.522;13.622;2023-02-28T05:25:20;9.32;;;4.82;;
78143;SDS011;67394;52.522;13.622;2023-02-28T05:27:47;7.82;;;4.40;;
78143;SDS011;67394;52.522;13.622;2023-02-28T05:30:13;7.10;;;4.07;;
78143;SDS011;67394;52.522;13.622;2023-02-28T05:32:40;7.85;;;4.18;;
78143;SDS011;67394;52.522;13.622;2023-02-28T05:35:07;10.75;;;4.88;;
78143;SDS011;67394;52.522;13.622;2023-02-28T05:37:33;7.72;;;4.35;;
78143;SDS011;67394;52.522;13.622;2023-02-28T05:40:00;6.75;;;4.35;;
78143;SDS011;67394;52.522;13.622;2023-02-28T05:42:26;8.38;;;4.88;;
78143;SDS011;67394;52.522;13.622;2023-02-28T05:44:52;6.07;;;4.57;;
78143;SDS011;67394;52.522;13.622;2023-02-28T05:47:18;7.32;;;4.45;;
78143;SDS011;67394;52.522;13.622;2023-02-28T05:49:45;8.32;;;4.90;;
78143;SDS011;67394;52.522;13.622;2023-02-28T05:52:11;7.97;;;4.90;;
78143;SDS011;67394;52.522;13.622;2023-02-28T05:54:37;8.63;;;3.97;;
78143;SDS011;67394;52.522;13.622;2023-02-28T05:57:04;9.70;;;4.72;;
78143;SDS011;67394;52.522;13.622;2023-02-28T05:59:40;8.55;;;4.60;;
78143;SDS011;67394;52.522;13.622;2023-02-28T06:02:14;10.30;;;4.45;;
78143;SDS011;67394;52.522;13.622;2023-02-28T06:04:42;8.07;;;4.88;;
78143;SDS011;67394;52.522;13.622;2023-02-28T06:07:09;8.52;;;5.25;;
78143;SDS011;67394;52.522;13.622;2023-02-28T06:09:36;9.00;;;5.20;;
78143;SDS011;67394;52.522;13.622;2023-02-28T06:12:04;8.73;;;4.93;;
78143;SDS011;67394;52.522;13.622;2023-02-28T06:14:32;8.40;;;4.90;;
78143;SDS011;67394;52.522;13.622;2023-02-28T06:17:00;11.60;;;5.28;;
78143;SDS011;67394;52.522;13.622;2023-02-28T06:19:27;9.40;;;4.95;;
78143;SDS011;67394;52.522;13.622;2023-02-28T06:21:54;8.98;;;5.70;;
78143;SDS011;67394;52.522;13.622;2023-02-28T06:24:21;8.75;;;4.90;;
78143;SDS011;67394;52.522;13.622;2023-02-28T06:26:48;9.45;;;5.80;;
78143;SDS011;67394;52.522;13.622;2023-02-28T06:29:15;12.38;;;6.05;;
78143;SDS011;67394;52.522;13.622;2023-02-28T06:31:43;9.30;;;4.68;;
78143;SDS011;67394;52.522;13.622;2023-02-28T06:34:10;8.05;;;4.70;;
78143;SDS011;67394;52.522;13.622;2023-02-28T06:36:37;8.75;;;4.93;;
78143;SDS011;67394;52.522;13.622;2023-02-28T06:39:04;10.75;;;5.43;;
78143;SDS011;67394;52.522;13.622;2023-02-28T06:41:31;9.35;;;5.32;;
78143;SDS011;67394;52.522;13.622;2023-02-28T06:44:18;11.43;;;5.70;;
78143;SDS011;67394;52.522;13.622;2023-02-28T06:46:44;8.82;;;5.40;;
78143;SDS011;67394;52.522;13.622;2023-02-28T06:49:11;10.77;;;5.60;;
78143;SDS011;67394;52.522;13.622;2023-02-28T06:51:40;9.82;;;5.55;;
78143;SDS011;67394;52.522;13.622;2023-02-28T06:54:08;10.23;;;5.82;;
78143;SDS011;67394;52.522;13.622;2023-02-28T06:56:34;11.65;;;6.22;;
78143;SDS011;67394;52.522;13.622;2023-02-28T06:59:01;12.13;;;6.50;;
78143;SDS011;67394;52.522;13.622;2023-02-28T07:01:27;11.07;;;6.35;;
78143;SDS011;67394;52.522;13.622;2023-02-28T07:03:54;11.57;;;6.63;;
78143;SDS011;67394;52.522;13.622;2023-02-28T07:06:21;12.07;;;7.05;;
78143;SDS011;67394;52.522;13.622;2023-02-28T07:08:48;11.68;;;5.78;;
78143;SDS011;67394;52.522;13.622;2023-02-28T07:11:15;16.67;;;7.45;;
78143;SDS011;67394;52.522;13.622;2023-02-28T07:13:42;18.27;;;7.65;;
78143;SDS011;67394;52.522;13.622;2023-02-28T07:16:10;11.65;;;7.25;;
78143;SDS011;67394;52.522;13.622;2023-02-28T07:18:37;13.32;;;7.78;;
78143;SDS011;67394;52.522;13.622;2023-02-28T07:21:04;13.98;;;7.70;;
78143;SDS011;67394;52.522;13.622;2023-02-28T07:23:33;15.65;;;7.80;;
78143;SDS011;67394;52.522;13.622;2023-02-28T07:26:00;16.50;;;8.75;;
78143;SDS011;67394;52.522;13.622;2023-02-28T07:28:27;15.82;;;8.95;;
78143;SDS011;67394;52.522;13.622;2023-02-28T07:30:54;21.17;;;10.60;;
78143;SDS011;67394;52.522;13.622;2023-02-28T07:33:20;17.27;;;9.32;;
78143;SDS011;67394;52.522;13.622;2023-02-28T07:35:46;16.00;;;8.30;;
78143;SDS011;67394;52.522;13.622;2023-02-28T07:38:13;16.95;;;8.70;;
78143;SDS011;67394;52.522;13.622;2023-02-28T07:40:39;13.35;;;7.32;;
78143;SDS011;67394;52.522;13.622;2023-02-28T07:43:05;11.13;;;5.93;;
78143;SDS011;67394;52.522;13.622;2023-02-28T07:45:32;10.85;;;5.22;;
78143;SDS011;67394;52.522;13.622;2023-02-28T07:47:59;8.07;;;5.05;;
78143;SDS011;67394;52.522;13.622;2023-02-28T07:50:26;8.05;;;4.97;;
78143;SDS011;67394;52.522;13.622;2023-02-28T07:52:52;11.52;;;5.53;;
78143;SDS011;67394;52.522;13.622;2023-02-28T07:55:19;7.22;;;4.53;;
78143;SDS011;67394;52.522;13.622;2023-02-28T07:57:45;7.65;;;4.50;;
78143;SDS011;67394;52.522;13.622;2023-02-28T08:00:11;8.98;;;4.65;;
78143;SDS011;67394;52.522;13.622;2023-02-28T08:02:38;7.43;;;4.22;;
78143;SDS011;67394;52.522;13.622;2023-02-28T08:05:05;6.53;;;4.43;;
78143;SDS011;67394;52.522;13.622;2023-02-28T08:07:32;5.70;;;3.78;;
78143;SDS011;67394;52.522;13.622;2023-02-28T08:09:59;7.28;;;4.25;;
78143;SDS011;67394;52.522;13.622;2023-02-28T08:12:26;8.15;;;4.43;;
78143;SDS011;67394;52.522;13.622;2023-02-28T08:14:52;6.65;;;3.55;;
78143;SDS011;67394;52.522;13.622;2023-02-28T08:17:19;6.90;;;3.85;;
78143;SDS011;67394;52.522;13.622;2023-02-28T08:19:45;6.90;;;3.95;;
78143;SDS011;67394;52.522;13.622;2023-02-28T08:22:12;11.05;;;4.43;;
78143;SDS011;67394;52.522;13.622;2023-02-28T08:24:38;7.03;;;4.10;;
78143;SDS011;67394;52.522;13.622;2023-02-28T08:27:07;8.50;;;3.92;;
78143;SDS011;67394;52.522;13.622;2023-02-28T08:29:33;8.10;;;4.22;;
78143;SDS011;67394;52.522;13.622;2023-02-28T08:31:59;6.50;;;4.03;;
78143;SDS011;67394;52.522;13.622;2023-02-28T08:34:26;9.50;;;4.40;;
78143;SDS011;67394;52.522;13.622;2023-02-28T08:36:52;5.88;;;4.20;;
78143;SDS011;67394;52.522;13.622;2023-02-28T08:39:19;6.65;;;4.20;;
78143;SDS011;67394;52.522;13.622;2023-02-28T08:41:45;7.15;;;4.22;;
78143;SDS011;67394;52.522;13.622;2023-02-28T08:44:16;7.97;;;4.50;;
78143;SDS011;67394;52.522;13.622;2023-02-28T08:46:42;6.38;;;3.80;;
78143;SDS011;67394;52.522;13.622;2023-02-28T08:49:09;6.43;;;4.07;;
78143;SDS011;67394;52.522;13.622;2023-02-28T08:54:02;5.88;;;2.90;;
78143;SDS011;67394;52.522;13.622;2023-02-28T08:56:29;6.07;;;3.50;;
78143;SDS011;67394;52.522;13.622;2023-02-28T08:58:55;3.58;;;2.17;;
78143;SDS011;67394;52.522;13.622;2023-02-28T09:01:23;5.57;;;2.33;;
78143;SDS011;67394;52.522;13.622;2023-02-28T09:03:52;5.35;;;2.92;;
78143;SDS011;67394;52.522;13.622;2023-02-28T09:06:25;4.35;;;2.75;;
78143;SDS011;67394;52.522;13.622;2023-02-28T09:08:56;3.90;;;2.10;;
78143;SDS011;67394;52.522;13.622;2023-02-28T09:11:23;4.15;;;2.30;;
78143;SDS011;67394;52.522;13.622;2023-02-28T09:13:50;5.60;;;2.30;;
78143;SDS011;67394;52.522;13.622;2023-02-28T09:16:16;4.75;;;2.90;;
78143;SDS011;67394;52.522;13.622;2023-02-28T09:18:43;3.45;;;2.40;;
78143;SDS011;67394;52.522;13.622;2023-02-28T09:21:12;6.68;;;2.53;;
78143;SDS011;67394;52.522;13.622;2023-02-28T09:23:40;4.60;;;1.98;;
78143;SDS011;67394;52.522;13.622;2023-02-28T09:28:38;3.03;;;1.90;;
78143;SDS011;67394;52.522;13.622;2023-02-28T09:31:04;2.88;;;1.70;;
78143;SDS011;67394;52.522;13.622;2023-02-28T09:33:31;3.17;;;1.83;;
78143;SDS011;67394;52.522;13.622;2023-02-28T09:35:59;3.17;;;1.95;;
78143;SDS011;67394;52.522;13.622;2023-02-28T09:38:27;3.10;;;1.88;;
78143;SDS011;67394;52.522;13.622;2023-02-28T09:41:01;4.30;;;2.20;;
78143;SDS011;67394;52.522;13.622;2023-02-28T09:43:33;3.65;;;2.42;;
78143;SDS011;67394;52.522;13.622;2023-02-28T09:48:54;4.93;;;3.10;;
78143;SDS011;67394;52.522;13.622;2023-02-28T09:54:10;5.05;;;2.42;;
78143;SDS011;67394;52.522;13.622;2023-02-28T09:56:41;5.35;;;2.63;;
78143;SDS011;67394;52.522;13.622;2023-02-28T10:05:17;3.63;;;2.20;;
78143;SDS011;67394;52.522;13.622;2023-02-28T10:10:32;6.40;;;2.80;;
78143;SDS011;67394;52.522;13.622;2023-02-28T10:15:55;5.53;;;2.70;;
78143;SDS011;67394;52.522;13.622;2023-02-28T10:18:48;5.03;;;2.47;;
78143;SDS011;67394;52.522;13.622;2023-02-28T10:21:21;6.07;;;2.97;;
78143;SDS011;67394;52.522;13.622;2023-02-28T10:23:56;4.80;;;2.90;;
78143;SDS011;67394;52.522;13.622;2023-02-28T10:26:29;3.75;;;2.22;;
78143;SDS011;67394;52.522;13.622;2023-02-28T10:28:57;5.65;;;2.53;;
78143;SDS011;67394;52.522;13.622;2023-02-28T10:31:24;3.65;;;2.40;;
78143;SDS011;67394;52.522;13.622;2023-02-28T10:33:51;4.43;;;2.40;;
78143;SDS011;67394;52.522;13.622;2023-02-28T10:36:18;4.43;;;2.42;;
78143;SDS011;67394;52.522;13.622;2023-02-28T10:38:46;5.13;;;2.50;;
78143;SDS011;67394;52.522;13.622;2023-02-28T10:41:26;5.57;;;3.05;;
78143;SDS011;67394;52.522;13.622;2023-02-28T10:44:11;4.75;;;3.00;;
78143;SDS011;67394;52.522;13.622;2023-02-28T10:46:40;4.15;;;2.47;;
78143;SDS011;67394;52.522;13.622;2023-02-28T10:49:12;5.05;;;2.53;;
78143;SDS011;67394;52.522;13.622;2023-02-28T10:51:43;4.70;;;2.78;;
78143;SDS011;67394;52.522;13.622;2023-02-28T10:56:45;3.78;;;2.55;;
78143;SDS011;67394;52.522;13.622;2023-02-28T11:01:41;3.50;;;2.47;;
78143;SDS011;67394;52.522;13.622;2023-02-28T11:04:19;4.57;;;2.38;;
78143;SDS011;67394;52.522;13.622;2023-02-28T11:07:19;3.42;;;2.20;;
78143;SDS011;67394;52.522;13.622;2023-02-28T11:09:52;4.97;;;2.42;;
78143;SDS011;67394;52.522;13.622;2023-02-28T11:14:55;3.83;;;2.17;;
78143;SDS011;67394;52.522;13.622;2023-02-28T11:17:29;4.47;;;2.10;;
78143;SDS011;67394;52.522;13.622;2023-02-28T11:20:01;5.28;;;2.08;;
78143;SDS011;67394;52.522;13.622;2023-02-28T11:22:35;3.60;;;2.15;;
78143;SDS011;67394;52.522;13.622;2023-02-28T11:25:12;3.78;;;2.05;;
78143;SDS011;67394;52.522;13.622;2023-02-28T11:27:48;3.67;;;2.22;;
78143;SDS011;67394;52.522;13.622;2023-02-28T11:30:30;3.42;;;2.30;;
78143;SDS011;67394;52.522;13.622;2023-02-28T11:33:23;3.80;;;2.17;;
78143;SDS011;67394;52.522;13.622;2023-02-28T11:35:57;3.13;;;2.03;;
78143;SDS011;67394;52.522;13.622;2023-02-28T11:38:26;3.20;;;1.83;;
78143;SDS011;67394;52.522;13.622;2023-02-28T11:43:40;5.55;;;2.42;;
78143;SDS011;67394;52.522;13.622;2023-02-28T11:46:38;3.65;;;2.03;;
78143;SDS011;67394;52.522;13.622;2023-02-28T11:49:22;4.00;;;2.42;;
78143;SDS011;67394;52.522;13.622;2023-02-28T11:55:15;3.20;;;2.20;;
78143;SDS011;67394;52.522;13.622;2023-02-28T12:06:08;5.35;;;2.15;;
78143;SDS011;67394;52.522;13.622;2023-02-28T12:08:44;3.40;;;2.35;;
78143;SDS011;67394;52.522;13.622;2023-02-28T12:14:32;4.15;;;2.33;;
78143;SDS011;67394;52.522;13.622;2023-02-28T12:19:59;3.47;;;2.47;;
78143;SDS011;67394;52.522;13.622;2023-02-28T12:28:16;4.30;;;2.47;;
78143;SDS011;67394;52.522;13.622;2023-02-28T12:30:49;4.25;;;2.38;;
78143;SDS011;67394;52.522;13.622;2023-02-28T12:33:47;5.20;;;2.75;;
78143;SDS011;67394;52.522;13.622;2023-02-28T12:36:19;5.15;;;2.33;;
78143;SDS011;67394;52.522;13.622;2023-02-28T12:38:47;3.08;;;1.90;;
78143;SDS011;67394;52.522;13.622;2023-02-28T12:41:19;3.70;;;1.88;;
78143;SDS011;67394;52.522;13.622;2023-02-28T12:43:53;5.30;;;2.67;;
78143;SDS011;67394;52.522;13.622;2023-02-28T12:46:33;4.45;;;2.22;;
78143;SDS011;67394;52.522;13.622;2023-02-28T12:49:06;3.58;;;2.22;;
78143;SDS011;67394;52.522;13.622;2023-02-28T12:51:37;5.95;;;2.60;;
78143;SDS011;67394;52.522;13.622;2023-02-28T12:56:43;4.22;;;2.20;;
78143;SDS011;67394;52.522;13.622;2023-02-28T13:02:09;4.72;;;2.50;;
78143;SDS011;67394;52.522;13.622;2023-02-28T13:04:52;4.22;;;2.90;;
78143;SDS011;67394;52.522;13.622;2023-02-28T13:07:32;5.03;;;2.83;;
78143;SDS011;67394;52.522;13.622;2023-02-28T13:10:10;4.30;;;2.65;;
78143;SDS011;67394;52.522;13.622;2023-02-28T13:12:36;4.40;;;2.78;;
78143;SDS011;67394;52.522;13.622;2023-02-28T13:17:46;4.60;;;2.33;;
78143;SDS011;67394;52.522;13.622;2023-02-28T13:20:16;4.70;;;2.75;;
78143;SDS011;67394;52.522;13.622;2023-02-28T13:22:50;4.05;;;2.33;;
78143;SDS011;67394;52.522;13.622;2023-02-28T13:27:57;4.63;;;2.90;;
78143;SDS011;67394;52.522;13.622;2023-02-28T13:35:46;6.78;;;3.40;;
78143;SDS011;67394;52.522;13.622;2023-02-28T13:38:15;6.63;;;3.00;;
78143;SDS011;67394;52.522;13.622;2023-02-28T13:40:47;5.30;;;2.95;;
78143;SDS011;67394;52.522;13.622;2023-02-28T13:43:16;4.97;;;2.97;;
78143;SDS011;67394;52.522;13.622;2023-02-28T13:46:10;4.32;;;2.88;;
78143;SDS011;67394;52.522;13.622;2023-02-28T13:51:27;4.25;;;2.78;;
78143;SDS011;67394;52.522;13.622;2023-02-28T13:54:04;4.45;;;3.13;;
78143;SDS011;67394;52.522;13.622;2023-02-28T13:59:33;4.22;;;3.25;;
78143;SDS011;67394;52.522;13.622;2023-02-28T14:05:21;5.57;;;3.03;;
78143;SDS011;67394;52.522;13.622;2023-02-28T14:07:49;5.40;;;3.10;;
78143;SDS011;67394;52.522;13.622;2023-02-28T14:10:23;5.18;;;3.05;;
78143;SDS011;67394;52.522;13.622;2023-02-28T14:13:02;5.85;;;3.13;;
78143;SDS011;67394;52.522;13.622;2023-02-28T14:20:58;4.97;;;3.25;;
78143;SDS011;67394;52.522;13.622;2023-02-28T14:29:39;4.03;;;2.60;;
78143;SDS011;67394;52.522;13.622;2023-02-28T14:32:13;4.43;;;2.65;;
78143;SDS011;67394;52.522;13.622;2023-02-28T14:38:13;4.82;;;3.03;;
78143;SDS011;67394;52.522;13.622;2023-02-28T14:40:43;5.70;;;3.03;;
78143;SDS011;67394;52.522;13.622;2023-02-28T14:43:20;5.28;;;2.88;;
78143;SDS011;67394;52.522;13.622;2023-02-28T14:45:52;4.50;;;2.60;;
78143;SDS011;67394;52.522;13.622;2023-02-28T14:48:20;5.25;;;2.88;;
78143;SDS011;67394;52.522;13.622;2023-02-28T14:50:52;5.53;;;3.10;;
78143;SDS011;67394;52.522;13.622;2023-02-28T14:53:21;5.20;;;3.10;;
78143;SDS011;67394;52.522;13.622;2023-02-28T14:55:49;4.45;;;2.70;;
78143;SDS011;67394;52.522;13.622;2023-02-28T14:58:23;4.75;;;2.72;;
78143;SDS011;67394;52.522;13.622;2023-02-28T15:00:50;5.63;;;2.90;;
78143;SDS011;67394;52.522;13.622;2023-02-28T15:03:19;3.67;;;2.97;;
78143;SDS011;67394;52.522;13.622;2023-02-28T15:05:51;4.63;;;2.90;;
78143;SDS011;67394;52.522;13.622;2023-02-28T15:08:23;4.50;;;2.97;;
78143;SDS011;67394;52.522;13.622;2023-02-28T15:16:54;4.03;;;2.92;;
78143;SDS011;67394;52.522;13.622;2023-02-28T15:19:01;4.78;;;2.80;;
78143;SDS011;67394;52.522;13.622;2023-02-28T15:21:34;5.20;;;2.78;;
78143;SDS011;67394;52.522;13.622;2023-02-28T15:24:05;3.60;;;2.50;;
78143;SDS011;67394;52.522;13.622;2023-02-28T15:26:39;6.43;;;2.80;;
78143;SDS011;67394;52.522;13.622;2023-02-28T15:29:08;5.60;;;3.00;;
78143;SDS011;67394;52.522;13.622;2023-02-28T15:31:43;4.25;;;2.85;;
78143;SDS011;67394;52.522;13.622;2023-02-28T15:43:18;4.45;;;2.50;;
78143;SDS011;67394;52.522;13.622;2023-02-28T15:45:56;5.00;;;2.72;;
78143;SDS011;67394;52.522;13.622;2023-02-28T15:48:24;5.20;;;2.80;;
78143;SDS011;67394;52.522;13.622;2023-02-28T15:53:44;5.53;;;2.90;;
78143;SDS011;67394;52.522;13.622;2023-02-28T15:56:24;5.45;;;3.10;;
78143;SDS011;67394;52.522;13.622;2023-02-28T15:59:01;5.28;;;2.97;;
78143;SDS011;67394;52.522;13.622;2023-02-28T16:01:34;5.13;;;3.30;;
78143;SDS011;67394;52.522;13.622;2023-02-28T16:04:06;4.65;;;3.03;;
78143;SDS011;67394;52.522;13.622;2023-02-28T16:06:40;4.45;;;2.95;;
78143;SDS011;67394;52.522;13.622;2023-02-28T16:09:09;5.05;;;2.78;;
78143;SDS011;67394;52.522;13.622;2023-02-28T16:11:39;5.80;;;3.63;;
78143;SDS011;67394;52.522;13.622;2023-02-28T16:14:12;5.28;;;3.35;;
78143;SDS011;67394;52.522;13.622;2023-02-28T16:16:42;6.47;;;3.38;;
78143;SDS011;67394;52.522;13.622;2023-02-28T16:19:10;6.82;;;3.45;;
78143;SDS011;67394;52.522;13.622;2023-02-28T16:21:36;4.38;;;3.30;;
78143;SDS011;67394;52.522;13.622;2023-02-28T16:24:02;6.78;;;3.50;;
78143;SDS011;67394;52.522;13.622;2023-02-28T16:26:29;4.70;;;2.85;;
78143;SDS011;67394;52.522;13.622;2023-02-28T16:28:55;5.47;;;3.17;;
78143;SDS011;67394;52.522;13.622;2023-02-28T16:31:22;6.57;;;3.55;;
78143;SDS011;67394;52.522;13.622;2023-02-28T16:33:48;5.18;;;3.53;;
78143;SDS011;67394;52.522;13.622;2023-02-28T16:36:15;6.60;;;3.60;;
78143;SDS011;67394;52.522;13.622;2023-02-28T16:38:46;6.10;;;3.30;;
78143;SDS011;67394;52.522;13.622;2023-02-28T16:41:23;6.03;;;3.20;;
78143;SDS011;67394;52.522;13.622;2023-02-28T16:43:52;5.47;;;3.15;;
78143;SDS011;67394;52.522;13.622;2023-02-28T16:46:20;5.03;;;2.75;;
78143;SDS011;67394;52.522;13.622;2023-02-28T16:48:47;5.63;;;3.28;;
78143;SDS011;67394;52.522;13.622;2023-02-28T16:51:17;6.10;;;3.22;;
78143;SDS011;67394;52.522;13.622;2023-02-28T16:53:44;7.78;;;4.43;;
78143;SDS011;67394;52.522;13.622;2023-02-28T16:56:29;5.50;;;4.47;;
78143;SDS011;67394;52.522;13.622;2023-02-28T16:58:58;7.10;;;4.38;;
78143;SDS011;67394;52.522;13.622;2023-02-28T17:01:26;7.22;;;3.85;;
78143;SDS011;67394;52.522;13.622;2023-02-28T17:03:54;7.38;;;4.75;;
78143;SDS011;67394;52.522;13.622;2023-02-28T17:06:24;7.10;;;4.18;;
78143;SDS011;67394;52.522;13.622;2023-02-28T17:08:53;7.90;;;4.97;;
78143;SDS011;67394;52.522;13.622;2023-02-28T17:11:20;9.05;;;5.05;;
78143;SDS011;67394;52.522;13.622;2023-02-28T17:13:47;6.20;;;4.70;;
78143;SDS011;67394;52.522;13.622;2023-02-28T17:16:20;9.75;;;5.30;;